sensor_id;sensor_type;location;lat;lon;timestamp;P1;durP1;ratioP1;P2;durP2;ratioP2
71937;SDS011;59810;48.800;9.086;2023-06-24T00:01:30;7.33;;;2.87;;
71937;SDS011;59810;48.800;9.086;2023-06-24T00:03:56;6.60;;;3.10;;
71937;SDS011;59810;48.800;9.086;2023-06-24T00:06:22;6.43;;;2.80;;
71937;SDS011;59810;48.800;9.086;2023-06-24T00:08:51;6.77;;;2.87;;
71937;SDS011;59810;48.800;9.086;2023-06-24T00:11:17;5.68;;;2.53;;
71937;SDS011;59810;48.800;9.086;2023-06-24T00:13:43;6.57;;;2.83;;
71937;SDS011;59810;48.800;9.086;2023-06-24T00:16:09;6.22;;;2.80;;
71937;SDS011;59810;48.800;9.086;2023-06-24T00:18:35;6.07;;;2.90;;
71937;SDS011;59810;48.800;9.086;2023-06-24T00:21:07;6.90;;;3.05;;
71937;SDS011;59810;48.800;9.086;2023-06-24T00:23:35;6.60;;;3.00;;
71937;SDS011;59810;48.800;9.086;2023-06-24T00:26:00;7.37;;;2.90;;
71937;SDS011;59810;48.800;9.086;2023-06-24T00:28:26;6.95;;;2.70;;
71937;SDS011;59810;48.800;9.086;2023-06-24T00:30:51;5.60;;;2.57;;
71937;SDS011;59810;48.800;9.086;2023-06-24T00:33:17;6.73;;;2.67;;
71937;SDS011;59810;48.800;9.086;2023-06-24T00:35:44;6.40;;;3.13;;
71937;SDS011;59810;48.800;9.086;2023-06-24T00:38:10;8.02;;;2.92;;
71937;SDS011;59810;48.800;9.086;2023-06-24T00:40:36;7.77;;;3.47;;
71937;SDS011;59810;48.800;9.086;2023-06-24T00:43:02;6.28;;;2.70;;
71937;SDS011;59810;48.800;9.086;2023-06-24T00:45:30;6.68;;;2.80;;
71937;SDS011;59810;48.800;9.086;2023-06-24T00:47:57;6.70;;;2.87;;
71937;SDS011;59810;48.800;9.086;2023-06-24T00:50:23;6.95;;;3.00;;
71937;SDS011;59810;48.800;9.086;2023-06-24T00:52:49;6.47;;;2.90;;
71937;SDS011;59810;48.800;9.086;2023-06-24T00:55:15;7.88;;;2.83;;
71937;SDS011;59810;48.800;9.086;2023-06-24T00:57:45;6.13;;;2.50;;
71937;SDS011;59810;48.800;9.086;2023-06-24T01:00:16;6.22;;;3.00;;
71937;SDS011;59810;48.800;9.086;2023-06-24T01:02:47;7.55;;;2.75;;
71937;SDS011;59810;48.800;9.086;2023-06-24T01:05:15;7.45;;;3.30;;
71937;SDS011;59810;48.800;9.086;2023-06-24T01:07:41;6.68;;;3.05;;
71937;SDS011;59810;48.800;9.086;2023-06-24T01:10:08;6.47;;;2.77;;
71937;SDS011;59810;48.800;9.086;2023-06-24T01:12:38;7.55;;;3.00;;
71937;SDS011;59810;48.800;9.086;2023-06-24T01:15:05;5.85;;;3.10;;
71937;SDS011;59810;48.800;9.086;2023-06-24T01:17:37;6.15;;;2.75;;
71937;SDS011;59810;48.800;9.086;2023-06-24T01:20:45;5.82;;;2.67;;
71937;SDS011;59810;48.800;9.086;2023-06-24T01:36:40;6.53;;;3.03;;
71937;SDS011;59810;48.800;9.086;2023-06-24T01:39:10;7.40;;;3.05;;
71937;SDS011;59810;48.800;9.086;2023-06-24T01:41:41;8.52;;;3.10;;
71937;SDS011;59810;48.800;9.086;2023-06-24T01:44:12;7.20;;;2.92;;
71937;SDS011;59810;48.800;9.086;2023-06-24T01:46:42;6.72;;;2.90;;
71937;SDS011;59810;48.800;9.086;2023-06-24T01:49:11;6.50;;;2.90;;
71937;SDS011;59810;48.800;9.086;2023-06-24T01:51:39;6.50;;;3.08;;
71937;SDS011;59810;48.800;9.086;2023-06-24T01:54:09;8.15;;;3.50;;
71937;SDS011;59810;48.800;9.086;2023-06-24T01:56:38;9.45;;;3.28;;
71937;SDS011;59810;48.800;9.086;2023-06-24T01:59:06;7.10;;;3.03;;
71937;SDS011;59810;48.800;9.086;2023-06-24T02:01:33;7.17;;;3.37;;
71937;SDS011;59810;48.800;9.086;2023-06-24T02:04:01;6.32;;;3.10;;
71937;SDS011;59810;48.800;9.086;2023-06-24T02:06:28;6.55;;;3.05;;
71937;SDS011;59810;48.800;9.086;2023-06-24T02:08:55;8.32;;;3.30;;
71937;SDS011;59810;48.800;9.086;2023-06-24T02:11:23;7.35;;;3.80;;
71937;SDS011;59810;48.800;9.086;2023-06-24T02:13:51;7.97;;;3.10;;
71937;SDS011;59810;48.800;9.086;2023-06-24T02:16:19;7.80;;;3.92;;
71937;SDS011;59810;48.800;9.086;2023-06-24T02:18:46;7.47;;;3.25;;
71937;SDS011;59810;48.800;9.086;2023-06-24T02:21:14;7.38;;;3.05;;
71937;SDS011;59810;48.800;9.086;2023-06-24T02:23:44;7.22;;;3.53;;
71937;SDS011;59810;48.800;9.086;2023-06-24T02:26:13;7.87;;;3.63;;
71937;SDS011;59810;48.800;9.086;2023-06-24T02:28:40;7.85;;;3.17;;
71937;SDS011;59810;48.800;9.086;2023-06-24T02:31:06;7.63;;;3.63;;
71937;SDS011;59810;48.800;9.086;2023-06-24T02:33:34;10.93;;;3.50;;
71937;SDS011;59810;48.800;9.086;2023-06-24T02:36:00;7.53;;;3.57;;
71937;SDS011;59810;48.800;9.086;2023-06-24T02:38:25;8.20;;;3.13;;
71937;SDS011;59810;48.800;9.086;2023-06-24T02:40:51;7.35;;;3.42;;
71937;SDS011;59810;48.800;9.086;2023-06-24T02:43:20;8.93;;;3.67;;
71937;SDS011;59810;48.800;9.086;2023-06-24T02:45:45;7.40;;;3.22;;
71937;SDS011;59810;48.800;9.086;2023-06-24T02:48:15;6.75;;;3.17;;
71937;SDS011;59810;48.800;9.086;2023-06-24T02:50:42;6.78;;;3.30;;
71937;SDS011;59810;48.800;9.086;2023-06-24T02:53:10;7.65;;;3.53;;
71937;SDS011;59810;48.800;9.086;2023-06-24T02:55:36;8.17;;;3.70;;
71937;SDS011;59810;48.800;9.086;2023-06-24T02:58:03;8.00;;;3.50;;
71937;SDS011;59810;48.800;9.086;2023-06-24T03:00:33;7.93;;;3.92;;
71937;SDS011;59810;48.800;9.086;2023-06-24T03:03:00;7.35;;;3.88;;
71937;SDS011;59810;48.800;9.086;2023-06-24T03:05:28;7.43;;;3.50;;
71937;SDS011;59810;48.800;9.086;2023-06-24T03:07:56;8.30;;;4.00;;
71937;SDS011;59810;48.800;9.086;2023-06-24T03:10:23;8.18;;;3.90;;
71937;SDS011;59810;48.800;9.086;2023-06-24T03:12:49;8.38;;;4.00;;
71937;SDS011;59810;48.800;9.086;2023-06-24T03:15:14;8.40;;;4.03;;
71937;SDS011;59810;48.800;9.086;2023-06-24T03:17:40;8.77;;;4.38;;
71937;SDS011;59810;48.800;9.086;2023-06-24T03:20:05;8.77;;;4.40;;
71937;SDS011;59810;48.800;9.086;2023-06-24T03:22:32;7.45;;;3.55;;
71937;SDS011;59810;48.800;9.086;2023-06-24T03:25:00;8.60;;;4.20;;
71937;SDS011;59810;48.800;9.086;2023-06-24T03:27:25;7.67;;;3.70;;
71937;SDS011;59810;48.800;9.086;2023-06-24T03:29:51;8.52;;;4.05;;
71937;SDS011;59810;48.800;9.086;2023-06-24T03:32:16;10.30;;;4.50;;
71937;SDS011;59810;48.800;9.086;2023-06-24T03:34:41;7.10;;;3.77;;
71937;SDS011;59810;48.800;9.086;2023-06-24T03:37:09;8.35;;;3.88;;
71937;SDS011;59810;48.800;9.086;2023-06-24T03:39:34;10.33;;;4.60;;
71937;SDS011;59810;48.800;9.086;2023-06-24T03:42:00;9.67;;;3.73;;
71937;SDS011;59810;48.800;9.086;2023-06-24T03:44:28;7.70;;;4.00;;
71937;SDS011;59810;48.800;9.086;2023-06-24T03:46:55;8.07;;;3.60;;
71937;SDS011;59810;48.800;9.086;2023-06-24T03:49:21;8.82;;;3.95;;
71937;SDS011;59810;48.800;9.086;2023-06-24T03:51:46;7.80;;;3.70;;
71937;SDS011;59810;48.800;9.086;2023-06-24T03:54:11;8.10;;;3.70;;
71937;SDS011;59810;48.800;9.086;2023-06-24T03:56:37;8.87;;;3.50;;
71937;SDS011;59810;48.800;9.086;2023-06-24T03:59:03;7.93;;;4.15;;
71937;SDS011;59810;48.800;9.086;2023-06-24T04:01:28;7.77;;;3.97;;
71937;SDS011;59810;48.800;9.086;2023-06-24T04:03:56;7.82;;;4.15;;
71937;SDS011;59810;48.800;9.086;2023-06-24T04:06:25;10.50;;;3.30;;
71937;SDS011;59810;48.800;9.086;2023-06-24T04:08:52;8.02;;;3.78;;
71937;SDS011;59810;48.800;9.086;2023-06-24T04:11:20;7.77;;;3.63;;
71937;SDS011;59810;48.800;9.086;2023-06-24T04:13:46;7.13;;;3.63;;
71937;SDS011;59810;48.800;9.086;2023-06-24T04:16:13;7.57;;;3.83;;
71937;SDS011;59810;48.800;9.086;2023-06-24T04:18:39;9.32;;;3.75;;
71937;SDS011;59810;48.800;9.086;2023-06-24T04:21:07;7.85;;;3.92;;
71937;SDS011;59810;48.800;9.086;2023-06-24T04:23:32;8.43;;;4.30;;
71937;SDS011;59810;48.800;9.086;2023-06-24T04:26:00;8.93;;;4.40;;
71937;SDS011;59810;48.800;9.086;2023-06-24T04:28:28;7.72;;;4.00;;
71937;SDS011;59810;48.800;9.086;2023-06-24T04:30:54;8.50;;;4.20;;
71937;SDS011;59810;48.800;9.086;2023-06-24T04:33:19;12.80;;;4.50;;
71937;SDS011;59810;48.800;9.086;2023-06-24T04:35:44;10.07;;;4.13;;
71937;SDS011;59810;48.800;9.086;2023-06-24T04:38:11;6.87;;;3.77;;
71937;SDS011;59810;48.800;9.086;2023-06-24T04:40:36;8.95;;;4.40;;
71937;SDS011;59810;48.800;9.086;2023-06-24T04:43:02;8.30;;;3.87;;
71937;SDS011;59810;48.800;9.086;2023-06-24T04:45:27;7.83;;;3.73;;
71937;SDS011;59810;48.800;9.086;2023-06-24T04:47:53;8.73;;;4.20;;
71937;SDS011;59810;48.800;9.086;2023-06-24T04:50:21;7.95;;;4.13;;
71937;SDS011;59810;48.800;9.086;2023-06-24T04:52:54;10.30;;;4.82;;
71937;SDS011;59810;48.800;9.086;2023-06-24T04:55:22;7.00;;;3.90;;
71937;SDS011;59810;48.800;9.086;2023-06-24T04:57:48;8.65;;;3.70;;
71937;SDS011;59810;48.800;9.086;2023-06-24T05:00:13;10.63;;;4.13;;
71937;SDS011;59810;48.800;9.086;2023-06-24T05:02:41;7.97;;;3.47;;
71937;SDS011;59810;48.800;9.086;2023-06-24T05:05:06;8.00;;;4.20;;
71937;SDS011;59810;48.800;9.086;2023-06-24T05:07:32;9.23;;;3.88;;
71937;SDS011;59810;48.800;9.086;2023-06-24T05:09:57;7.73;;;3.93;;
71937;SDS011;59810;48.800;9.086;2023-06-24T05:12:25;8.35;;;4.28;;
71937;SDS011;59810;48.800;9.086;2023-06-24T05:14:51;9.33;;;4.00;;
71937;SDS011;59810;48.800;9.086;2023-06-24T05:17:19;9.85;;;4.53;;
71937;SDS011;59810;48.800;9.086;2023-06-24T05:19:45;9.67;;;4.10;;
71937;SDS011;59810;48.800;9.086;2023-06-24T05:22:10;9.23;;;4.40;;
71937;SDS011;59810;48.800;9.086;2023-06-24T05:24:36;9.23;;;4.40;;
71937;SDS011;59810;48.800;9.086;2023-06-24T05:27:05;8.50;;;3.53;;
71937;SDS011;59810;48.800;9.086;2023-06-24T05:29:31;8.07;;;4.00;;
71937;SDS011;59810;48.800;9.086;2023-06-24T05:31:57;7.55;;;3.40;;
71937;SDS011;59810;48.800;9.086;2023-06-24T05:34:23;8.43;;;3.67;;
71937;SDS011;59810;48.800;9.086;2023-06-24T05:36:48;8.88;;;3.30;;
71937;SDS011;59810;48.800;9.086;2023-06-24T05:39:14;7.93;;;3.83;;
71937;SDS011;59810;48.800;9.086;2023-06-24T05:41:39;8.20;;;3.70;;
71937;SDS011;59810;48.800;9.086;2023-06-24T05:44:06;6.37;;;3.20;;
71937;SDS011;59810;48.800;9.086;2023-06-24T05:46:38;8.07;;;3.40;;
71937;SDS011;59810;48.800;9.086;2023-06-24T05:49:03;9.32;;;3.83;;
71937;SDS011;59810;48.800;9.086;2023-06-24T05:51:29;7.50;;;3.47;;
71937;SDS011;59810;48.800;9.086;2023-06-24T05:53:54;7.70;;;3.90;;
71937;SDS011;59810;48.800;9.086;2023-06-24T05:56:20;7.27;;;3.60;;
71937;SDS011;59810;48.800;9.086;2023-06-24T05:58:47;7.68;;;3.22;;
71937;SDS011;59810;48.800;9.086;2023-06-24T06:01:12;7.30;;;3.67;;
71937;SDS011;59810;48.800;9.086;2023-06-24T06:03:38;6.97;;;3.30;;
71937;SDS011;59810;48.800;9.086;2023-06-24T06:06:03;8.20;;;4.07;;
71937;SDS011;59810;48.800;9.086;2023-06-24T06:08:29;7.30;;;3.73;;
71937;SDS011;59810;48.800;9.086;2023-06-24T06:10:54;7.30;;;3.60;;
71937;SDS011;59810;48.800;9.086;2023-06-24T06:13:20;7.40;;;3.60;;
71937;SDS011;59810;48.800;9.086;2023-06-24T06:15:45;8.77;;;3.70;;
71937;SDS011;59810;48.800;9.086;2023-06-24T06:18:13;6.77;;;3.30;;
71937;SDS011;59810;48.800;9.086;2023-06-24T06:20:39;7.25;;;3.45;;
71937;SDS011;59810;48.800;9.086;2023-06-24T06:23:07;5.88;;;3.20;;
71937;SDS011;59810;48.800;9.086;2023-06-24T06:25:32;6.77;;;3.30;;
71937;SDS011;59810;48.800;9.086;2023-06-24T06:27:58;6.97;;;3.23;;
71937;SDS011;59810;48.800;9.086;2023-06-24T06:30:31;7.97;;;3.70;;
71937;SDS011;59810;48.800;9.086;2023-06-24T06:32:56;6.75;;;3.13;;
71937;SDS011;59810;48.800;9.086;2023-06-24T06:35:21;7.97;;;2.90;;
71937;SDS011;59810;48.800;9.086;2023-06-24T06:37:47;7.23;;;3.37;;
71937;SDS011;59810;48.800;9.086;2023-06-24T06:40:17;6.03;;;2.90;;
71937;SDS011;59810;48.800;9.086;2023-06-24T06:42:43;6.20;;;2.90;;
71937;SDS011;59810;48.800;9.086;2023-06-24T06:45:08;5.90;;;2.93;;
71937;SDS011;59810;48.800;9.086;2023-06-24T06:47:34;6.20;;;2.77;;
71937;SDS011;59810;48.800;9.086;2023-06-24T06:49:59;7.03;;;3.00;;
71937;SDS011;59810;48.800;9.086;2023-06-24T06:52:25;7.57;;;2.80;;
71937;SDS011;59810;48.800;9.086;2023-06-24T06:54:50;6.40;;;2.57;;
71937;SDS011;59810;48.800;9.086;2023-06-24T06:57:15;7.83;;;3.20;;
71937;SDS011;59810;48.800;9.086;2023-06-24T06:59:41;5.53;;;2.60;;
71937;SDS011;59810;48.800;9.086;2023-06-24T07:02:06;6.65;;;3.13;;
71937;SDS011;59810;48.800;9.086;2023-06-24T07:04:32;5.93;;;2.53;;
71937;SDS011;59810;48.800;9.086;2023-06-24T07:07:00;6.63;;;3.00;;
71937;SDS011;59810;48.800;9.086;2023-06-24T07:09:27;5.70;;;2.67;;
71937;SDS011;59810;48.800;9.086;2023-06-24T07:11:53;6.72;;;3.08;;
71937;SDS011;59810;48.800;9.086;2023-06-24T07:14:21;6.65;;;3.05;;
71937;SDS011;59810;48.800;9.086;2023-06-24T07:16:47;5.63;;;2.70;;
71937;SDS011;59810;48.800;9.086;2023-06-24T07:19:12;5.60;;;2.80;;
71937;SDS011;59810;48.800;9.086;2023-06-24T07:21:42;6.75;;;3.10;;
71937;SDS011;59810;48.800;9.086;2023-06-24T07:24:10;7.10;;;2.95;;
71937;SDS011;59810;48.800;9.086;2023-06-24T07:26:37;8.00;;;3.22;;
71937;SDS011;59810;48.800;9.086;2023-06-24T07:29:05;8.90;;;3.40;;
71937;SDS011;59810;48.800;9.086;2023-06-24T07:31:32;6.90;;;3.17;;
71937;SDS011;59810;48.800;9.086;2023-06-24T07:33:57;5.93;;;3.10;;
71937;SDS011;59810;48.800;9.086;2023-06-24T07:36:22;6.53;;;2.80;;
71937;SDS011;59810;48.800;9.086;2023-06-24T07:38:48;6.93;;;3.10;;
71937;SDS011;59810;48.800;9.086;2023-06-24T07:41:13;7.63;;;2.80;;
71937;SDS011;59810;48.800;9.086;2023-06-24T07:43:38;6.40;;;3.03;;
71937;SDS011;59810;48.800;9.086;2023-06-24T07:46:06;5.90;;;3.50;;
71937;SDS011;59810;48.800;9.086;2023-06-24T07:48:34;6.57;;;3.17;;
71937;SDS011;59810;48.800;9.086;2023-06-24T07:50:59;6.13;;;3.13;;
71937;SDS011;59810;48.800;9.086;2023-06-24T07:53:25;6.23;;;3.10;;
71937;SDS011;59810;48.800;9.086;2023-06-24T07:55:50;5.93;;;3.17;;
71937;SDS011;59810;48.800;9.086;2023-06-24T07:58:16;5.95;;;3.20;;
71937;SDS011;59810;48.800;9.086;2023-06-24T08:00:41;6.87;;;3.53;;
71937;SDS011;59810;48.800;9.086;2023-06-24T08:03:07;6.07;;;2.90;;
71937;SDS011;59810;48.800;9.086;2023-06-24T08:05:33;7.47;;;3.53;;
71937;SDS011;59810;48.800;9.086;2023-06-24T08:07:58;7.13;;;3.27;;
71937;SDS011;59810;48.800;9.086;2023-06-24T08:10:23;6.27;;;2.90;;
71937;SDS011;59810;48.800;9.086;2023-06-24T08:12:49;5.47;;;2.73;;
71937;SDS011;59810;48.800;9.086;2023-06-24T08:15:14;8.10;;;3.27;;
71937;SDS011;59810;48.800;9.086;2023-06-24T08:17:42;5.95;;;2.63;;
71937;SDS011;59810;48.800;9.086;2023-06-24T08:20:07;6.73;;;2.57;;
71937;SDS011;59810;48.800;9.086;2023-06-24T08:22:33;8.90;;;3.15;;
71937;SDS011;59810;48.800;9.086;2023-06-24T08:24:58;6.13;;;2.70;;
71937;SDS011;59810;48.800;9.086;2023-06-24T08:27:24;5.72;;;3.13;;
71937;SDS011;59810;48.800;9.086;2023-06-24T08:29:49;6.03;;;2.80;;
71937;SDS011;59810;48.800;9.086;2023-06-24T08:32:15;5.23;;;2.67;;
71937;SDS011;59810;48.800;9.086;2023-06-24T08:34:40;5.90;;;2.65;;
71937;SDS011;59810;48.800;9.086;2023-06-24T08:37:06;6.50;;;2.80;;
71937;SDS011;59810;48.800;9.086;2023-06-24T08:39:33;5.17;;;2.57;;
71937;SDS011;59810;48.800;9.086;2023-06-24T08:42:02;6.80;;;2.72;;
71937;SDS011;59810;48.800;9.086;2023-06-24T08:44:28;5.25;;;2.85;;
71937;SDS011;59810;48.800;9.086;2023-06-24T08:46:53;5.47;;;2.70;;
71937;SDS011;59810;48.800;9.086;2023-06-24T08:49:29;6.32;;;2.80;;
71937;SDS011;59810;48.800;9.086;2023-06-24T08:54:25;5.60;;;2.53;;
71937;SDS011;59810;48.800;9.086;2023-06-24T08:56:52;5.68;;;2.85;;
71937;SDS011;59810;48.800;9.086;2023-06-24T08:59:18;4.85;;;2.33;;
71937;SDS011;59810;48.800;9.086;2023-06-24T09:01:47;7.70;;;2.70;;
71937;SDS011;59810;48.800;9.086;2023-06-24T09:04:14;5.13;;;2.60;;
71937;SDS011;59810;48.800;9.086;2023-06-24T09:06:39;6.07;;;2.70;;
71937;SDS011;59810;48.800;9.086;2023-06-24T09:09:23;6.30;;;3.10;;
71937;SDS011;59810;48.800;9.086;2023-06-24T09:11:53;6.00;;;2.90;;
71937;SDS011;59810;48.800;9.086;2023-06-24T09:14:23;5.93;;;2.65;;
71937;SDS011;59810;48.800;9.086;2023-06-24T09:16:50;6.78;;;2.50;;
71937;SDS011;59810;48.800;9.086;2023-06-24T09:19:23;6.90;;;2.90;;
71937;SDS011;59810;48.800;9.086;2023-06-24T09:21:50;6.40;;;2.70;;
71937;SDS011;59810;48.800;9.086;2023-06-24T09:24:18;5.72;;;2.78;;
71937;SDS011;59810;48.800;9.086;2023-06-24T09:26:45;13.02;;;3.13;;
71937;SDS011;59810;48.800;9.086;2023-06-24T09:29:15;5.90;;;2.83;;
71937;SDS011;59810;48.800;9.086;2023-06-24T09:31:46;5.68;;;2.80;;
71937;SDS011;59810;48.800;9.086;2023-06-24T09:34:14;6.37;;;2.63;;
71937;SDS011;59810;48.800;9.086;2023-06-24T09:36:43;7.88;;;2.67;;
71937;SDS011;59810;48.800;9.086;2023-06-24T09:39:12;7.00;;;2.85;;
71937;SDS011;59810;48.800;9.086;2023-06-24T09:41:41;9.97;;;3.00;;
71937;SDS011;59810;48.800;9.086;2023-06-24T09:44:11;4.85;;;2.58;;
71937;SDS011;59810;48.800;9.086;2023-06-24T09:46:37;7.25;;;3.20;;
71937;SDS011;59810;48.800;9.086;2023-06-24T09:49:04;6.27;;;2.97;;
71937;SDS011;59810;48.800;9.086;2023-06-24T09:51:31;6.00;;;2.65;;
71937;SDS011;59810;48.800;9.086;2023-06-24T09:54:04;5.40;;;2.60;;
71937;SDS011;59810;48.800;9.086;2023-06-24T09:56:31;5.50;;;3.08;;
71937;SDS011;59810;48.800;9.086;2023-06-24T09:59:00;5.80;;;3.05;;
71937;SDS011;59810;48.800;9.086;2023-06-24T10:01:26;6.13;;;2.53;;
71937;SDS011;59810;48.800;9.086;2023-06-24T10:03:52;6.13;;;2.80;;
71937;SDS011;59810;48.800;9.086;2023-06-24T10:06:18;6.85;;;2.83;;
71937;SDS011;59810;48.800;9.086;2023-06-24T10:08:44;5.67;;;2.70;;
71937;SDS011;59810;48.800;9.086;2023-06-24T10:11:11;5.10;;;2.70;;
71937;SDS011;59810;48.800;9.086;2023-06-24T10:13:37;6.03;;;2.37;;
71937;SDS011;59810;48.800;9.086;2023-06-24T10:16:02;5.38;;;2.53;;
71937;SDS011;59810;48.800;9.086;2023-06-24T10:20:56;4.37;;;2.20;;
71937;SDS011;59810;48.800;9.086;2023-06-24T10:23:28;7.80;;;3.60;;
71937;SDS011;59810;48.800;9.086;2023-06-24T10:25:55;5.82;;;2.65;;
71937;SDS011;59810;48.800;9.086;2023-06-24T10:28:20;5.40;;;2.20;;
71937;SDS011;59810;48.800;9.086;2023-06-24T10:30:55;5.47;;;2.57;;
71937;SDS011;59810;48.800;9.086;2023-06-24T10:33:24;5.68;;;2.50;;
71937;SDS011;59810;48.800;9.086;2023-06-24T10:35:50;5.90;;;2.80;;
71937;SDS011;59810;48.800;9.086;2023-06-24T10:38:16;6.43;;;2.60;;
71937;SDS011;59810;48.800;9.086;2023-06-24T10:40:43;5.93;;;2.70;;
71937;SDS011;59810;48.800;9.086;2023-06-24T10:45:49;5.78;;;2.70;;
71937;SDS011;59810;48.800;9.086;2023-06-24T10:48:16;4.40;;;2.10;;
71937;SDS011;59810;48.800;9.086;2023-06-24T10:50:42;5.55;;;2.70;;
71937;SDS011;59810;48.800;9.086;2023-06-24T10:53:07;6.70;;;2.80;;
71937;SDS011;59810;48.800;9.086;2023-06-24T10:55:33;6.38;;;2.60;;
71937;SDS011;59810;48.800;9.086;2023-06-24T10:58:07;5.97;;;2.92;;
71937;SDS011;59810;48.800;9.086;2023-06-24T11:00:34;5.73;;;2.80;;
71937;SDS011;59810;48.800;9.086;2023-06-24T11:03:07;5.65;;;2.60;;
71937;SDS011;59810;48.800;9.086;2023-06-24T11:05:34;5.50;;;2.40;;
71937;SDS011;59810;48.800;9.086;2023-06-24T11:07:59;5.40;;;2.73;;
71937;SDS011;59810;48.800;9.086;2023-06-24T11:10:25;5.53;;;2.33;;
71937;SDS011;59810;48.800;9.086;2023-06-24T11:12:50;5.97;;;2.80;;
71937;SDS011;59810;48.800;9.086;2023-06-24T11:15:16;7.60;;;2.53;;
71937;SDS011;59810;48.800;9.086;2023-06-24T11:17:43;5.50;;;2.60;;
71937;SDS011;59810;48.800;9.086;2023-06-24T11:20:09;5.87;;;2.37;;
71937;SDS011;59810;48.800;9.086;2023-06-24T11:22:41;5.22;;;2.67;;
71937;SDS011;59810;48.800;9.086;2023-06-24T11:25:17;6.25;;;2.60;;
71937;SDS011;59810;48.800;9.086;2023-06-24T11:27:44;5.63;;;2.85;;
71937;SDS011;59810;48.800;9.086;2023-06-24T11:30:10;4.67;;;2.23;;
71937;SDS011;59810;48.800;9.086;2023-06-24T11:32:37;5.03;;;2.40;;
71937;SDS011;59810;48.800;9.086;2023-06-24T11:35:07;5.38;;;2.25;;
71937;SDS011;59810;48.800;9.086;2023-06-24T11:37:34;4.20;;;2.20;;
71937;SDS011;59810;48.800;9.086;2023-06-24T11:40:04;6.30;;;2.73;;
71937;SDS011;59810;48.800;9.086;2023-06-24T11:42:33;5.00;;;2.25;;
71937;SDS011;59810;48.800;9.086;2023-06-24T11:45:04;5.60;;;2.63;;
71937;SDS011;59810;48.800;9.086;2023-06-24T11:47:36;5.82;;;2.53;;
71937;SDS011;59810;48.800;9.086;2023-06-24T11:50:03;5.23;;;2.40;;
71937;SDS011;59810;48.800;9.086;2023-06-24T11:55:01;5.07;;;2.50;;
71937;SDS011;59810;48.800;9.086;2023-06-24T11:57:46;5.90;;;2.80;;
71937;SDS011;59810;48.800;9.086;2023-06-24T12:00:26;4.80;;;2.33;;
71937;SDS011;59810;48.800;9.086;2023-06-24T12:02:53;4.33;;;2.40;;
71937;SDS011;59810;48.800;9.086;2023-06-24T12:05:41;5.40;;;2.90;;
71937;SDS011;59810;48.800;9.086;2023-06-24T12:08:10;5.40;;;2.50;;
71937;SDS011;59810;48.800;9.086;2023-06-24T12:10:37;4.90;;;2.70;;
71937;SDS011;59810;48.800;9.086;2023-06-24T12:13:03;5.10;;;2.63;;
71937;SDS011;59810;48.800;9.086;2023-06-24T12:15:31;5.70;;;3.10;;
71937;SDS011;59810;48.800;9.086;2023-06-24T12:18:00;5.95;;;3.45;;
71937;SDS011;59810;48.800;9.086;2023-06-24T12:20:27;5.30;;;2.60;;
71937;SDS011;59810;48.800;9.086;2023-06-24T12:22:56;6.38;;;2.55;;
71937;SDS011;59810;48.800;9.086;2023-06-24T12:25:21;4.95;;;2.28;;
71937;SDS011;59810;48.800;9.086;2023-06-24T12:27:47;5.20;;;2.80;;
71937;SDS011;59810;48.800;9.086;2023-06-24T12:30:13;6.13;;;2.73;;
71937;SDS011;59810;48.800;9.086;2023-06-24T12:32:39;5.65;;;2.90;;
71937;SDS011;59810;48.800;9.086;2023-06-24T12:35:07;6.50;;;3.42;;
71937;SDS011;59810;48.800;9.086;2023-06-24T12:37:35;5.47;;;2.80;;
71937;SDS011;59810;48.800;9.086;2023-06-24T12:40:02;5.18;;;2.58;;
71937;SDS011;59810;48.800;9.086;2023-06-24T12:42:28;6.45;;;2.85;;
71937;SDS011;59810;48.800;9.086;2023-06-24T12:44:56;5.90;;;2.97;;
71937;SDS011;59810;48.800;9.086;2023-06-24T12:47:21;6.15;;;2.83;;
71937;SDS011;59810;48.800;9.086;2023-06-24T12:49:47;5.80;;;2.70;;
71937;SDS011;59810;48.800;9.086;2023-06-24T12:52:15;5.82;;;2.78;;
71937;SDS011;59810;48.800;9.086;2023-06-24T12:54:41;5.88;;;2.78;;
71937;SDS011;59810;48.800;9.086;2023-06-24T12:57:07;6.37;;;3.17;;
71937;SDS011;59810;48.800;9.086;2023-06-24T12:59:32;4.90;;;2.73;;
71937;SDS011;59810;48.800;9.086;2023-06-24T13:02:00;6.27;;;2.97;;
71937;SDS011;59810;48.800;9.086;2023-06-24T13:04:26;5.85;;;3.15;;
71937;SDS011;59810;48.800;9.086;2023-06-24T13:06:52;5.50;;;2.63;;
71937;SDS011;59810;48.800;9.086;2023-06-24T13:09:17;5.03;;;2.47;;
71937;SDS011;59810;48.800;9.086;2023-06-24T13:11:43;5.40;;;2.70;;
71937;SDS011;59810;48.800;9.086;2023-06-24T13:14:08;8.32;;;3.15;;
71937;SDS011;59810;48.800;9.086;2023-06-24T13:16:35;6.17;;;2.70;;
71937;SDS011;59810;48.800;9.086;2023-06-24T13:19:01;5.90;;;2.80;;
71937;SDS011;59810;48.800;9.086;2023-06-24T13:21:26;4.77;;;2.30;;
71937;SDS011;59810;48.800;9.086;2023-06-24T13:23:51;4.77;;;2.53;;
71937;SDS011;59810;48.800;9.086;2023-06-24T13:26:17;5.33;;;2.80;;
71937;SDS011;59810;48.800;9.086;2023-06-24T13:28:42;4.97;;;2.40;;
71937;SDS011;59810;48.800;9.086;2023-06-24T13:31:08;9.35;;;2.90;;
71937;SDS011;59810;48.800;9.086;2023-06-24T13:33:34;6.37;;;2.40;;
71937;SDS011;59810;48.800;9.086;2023-06-24T13:36:03;6.03;;;2.80;;
71937;SDS011;59810;48.800;9.086;2023-06-24T13:38:32;5.65;;;2.75;;
71937;SDS011;59810;48.800;9.086;2023-06-24T13:40:57;6.30;;;3.13;;
71937;SDS011;59810;48.800;9.086;2023-06-24T13:43:22;5.90;;;2.80;;
71937;SDS011;59810;48.800;9.086;2023-06-24T13:45:48;5.78;;;2.95;;
71937;SDS011;59810;48.800;9.086;2023-06-24T13:48:13;5.83;;;2.70;;
71937;SDS011;59810;48.800;9.086;2023-06-24T13:50:39;5.50;;;3.20;;
71937;SDS011;59810;48.800;9.086;2023-06-24T13:53:07;6.32;;;3.90;;
71937;SDS011;59810;48.800;9.086;2023-06-24T13:55:35;6.32;;;2.88;;
71937;SDS011;59810;48.800;9.086;2023-06-24T13:58:03;5.03;;;2.55;;
71937;SDS011;59810;48.800;9.086;2023-06-24T14:00:29;4.73;;;2.53;;
71937;SDS011;59810;48.800;9.086;2023-06-24T14:02:54;5.22;;;3.13;;
71937;SDS011;59810;48.800;9.086;2023-06-24T14:05:20;7.70;;;3.13;;
71937;SDS011;59810;48.800;9.086;2023-06-24T14:07:46;5.30;;;2.95;;
71937;SDS011;59810;48.800;9.086;2023-06-24T14:10:11;5.30;;;3.00;;
71937;SDS011;59810;48.800;9.086;2023-06-24T14:12:37;6.30;;;2.97;;
71937;SDS011;59810;48.800;9.086;2023-06-24T14:15:03;5.57;;;2.90;;
71937;SDS011;59810;48.800;9.086;2023-06-24T14:17:32;7.10;;;3.40;;
71937;SDS011;59810;48.800;9.086;2023-06-24T14:19:57;7.03;;;3.20;;
71937;SDS011;59810;48.800;9.086;2023-06-24T14:22:26;4.95;;;2.90;;
71937;SDS011;59810;48.800;9.086;2023-06-24T14:24:51;5.13;;;2.87;;
71937;SDS011;59810;48.800;9.086;2023-06-24T14:27:17;5.67;;;3.13;;
71937;SDS011;59810;48.800;9.086;2023-06-24T14:29:42;5.57;;;3.13;;
71937;SDS011;59810;48.800;9.086;2023-06-24T14:32:07;4.90;;;3.00;;
71937;SDS011;59810;48.800;9.086;2023-06-24T14:34:33;5.50;;;3.63;;
71937;SDS011;59810;48.800;9.086;2023-06-24T14:36:58;5.60;;;3.77;;
71937;SDS011;59810;48.800;9.086;2023-06-24T14:39:24;5.60;;;3.30;;
71937;SDS011;59810;48.800;9.086;2023-06-24T14:41:49;5.90;;;3.77;;
71937;SDS011;59810;48.800;9.086;2023-06-24T14:44:15;5.87;;;3.80;;
71937;SDS011;59810;48.800;9.086;2023-06-24T14:46:40;6.50;;;4.15;;
71937;SDS011;59810;48.800;9.086;2023-06-24T14:49:06;5.90;;;4.40;;
71937;SDS011;59810;48.800;9.086;2023-06-24T14:51:32;5.65;;;4.32;;
71937;SDS011;59810;48.800;9.086;2023-06-24T14:53:57;5.80;;;3.80;;
71937;SDS011;59810;48.800;9.086;2023-06-24T14:56:23;7.47;;;4.23;;
71937;SDS011;59810;48.800;9.086;2023-06-24T14:58:48;8.40;;;4.25;;
71937;SDS011;59810;48.800;9.086;2023-06-24T15:01:14;6.57;;;4.20;;
71937;SDS011;59810;48.800;9.086;2023-06-24T15:03:39;5.37;;;3.63;;
71937;SDS011;59810;48.800;9.086;2023-06-24T15:06:04;7.97;;;3.93;;
71937;SDS011;59810;48.800;9.086;2023-06-24T15:08:30;6.57;;;4.00;;
71937;SDS011;59810;48.800;9.086;2023-06-24T15:10:56;6.77;;;4.03;;